sensor_id;sensor_type;location;lat;lon;timestamp;pressure;altitude;pressure_sealevel;temperature;humidity
76311;BME280;65120;59.304;18.294;2023-03-13T00:01:48;100303.00;;;-5.02;56.70
76311;BME280;65120;59.304;18.294;2023-03-13T00:04:15;100302.13;;;-5.02;56.95
76311;BME280;65120;59.304;18.294;2023-03-13T00:06:43;100291.00;;;-5.04;57.01
76311;BME280;65120;59.304;18.294;2023-03-13T00:09:13;100298.66;;;-5.04;56.44
76311;BME280;65120;59.304;18.294;2023-03-13T00:11:40;100306.25;;;-5.06;56.54
76311;BME280;65120;59.304;18.294;2023-03-13T00:14:07;100296.00;;;-5.07;56.91
76311;BME280;65120;59.304;18.294;2023-03-13T00:16:35;100301.91;;;-5.08;57.15
76311;BME280;65120;59.304;18.294;2023-03-13T00:19:04;100301.81;;;-5.11;56.36
76311;BME280;65120;59.304;18.294;2023-03-13T00:21:31;100309.31;;;-5.14;56.73
76311;BME280;65120;59.304;18.294;2023-03-13T00:24:00;100315.22;;;-5.15;56.38
76311;BME280;65120;59.304;18.294;2023-03-13T00:26:27;100315.91;;;-5.20;56.61
76311;BME280;65120;59.304;18.294;2023-03-13T00:28:55;100316.84;;;-5.17;56.30
76311;BME280;65120;59.304;18.294;2023-03-13T00:31:23;100319.34;;;-5.19;56.44
76311;BME280;65120;59.304;18.294;2023-03-13T00:33:52;100312.44;;;-5.22;56.62
76311;BME280;65120;59.304;18.294;2023-03-13T00:36:21;100317.53;;;-5.22;56.60
76311;BME280;65120;59.304;18.294;2023-03-13T00:38:48;100312.31;;;-5.25;56.34
76311;BME280;65120;59.304;18.294;2023-03-13T00:41:18;100312.28;;;-5.26;56.90
76311;BME280;65120;59.304;18.294;2023-03-13T00:43:46;100302.03;;;-5.28;57.39
76311;BME280;65120;59.304;18.294;2023-03-13T00:46:15;100306.19;;;-5.30;57.23
76311;BME280;65120;59.304;18.294;2023-03-13T00:48:42;100309.56;;;-5.31;57.25
76311;BME280;65120;59.304;18.294;2023-03-13T00:51:10;100311.16;;;-5.33;56.75
76311;BME280;65120;59.304;18.294;2023-03-13T00:53:37;100317.09;;;-5.34;57.14
76311;BME280;65120;59.304;18.294;2023-03-13T00:56:06;100311.00;;;-5.37;57.24
76311;BME280;65120;59.304;18.294;2023-03-13T00:58:36;100305.81;;;-5.40;56.89
76311;BME280;65120;59.304;18.294;2023-03-13T01:01:08;100299.03;;;-5.40;57.12
76311;BME280;65120;59.304;18.294;2023-03-13T01:03:36;100289.59;;;-5.43;56.90
76311;BME280;65120;59.304;18.294;2023-03-13T01:06:05;100279.13;;;-5.50;56.99
76311;BME280;65120;59.304;18.294;2023-03-13T01:08:32;100283.41;;;-5.49;57.03
76311;BME280;65120;59.304;18.294;2023-03-13T01:11:00;100280.91;;;-5.48;56.75
76311;BME280;65120;59.304;18.294;2023-03-13T01:13:28;100270.56;;;-5.52;57.45
76311;BME280;65120;59.304;18.294;2023-03-13T01:15:56;100270.50;;;-5.54;57.30
76311;BME280;65120;59.304;18.294;2023-03-13T01:18:23;100267.09;;;-5.54;57.06
76311;BME280;65120;59.304;18.294;2023-03-13T01:20:50;100273.81;;;-5.56;57.58
76311;BME280;65120;59.304;18.294;2023-03-13T01:23:17;100267.78;;;-5.58;57.61
76311;BME280;65120;59.304;18.294;2023-03-13T01:25:44;100258.34;;;-5.61;57.40
76311;BME280;65120;59.304;18.294;2023-03-13T01:28:11;100256.56;;;-5.63;57.58
76311;BME280;65120;59.304;18.294;2023-03-13T01:30:37;100253.97;;;-5.65;57.07
76311;BME280;65120;59.304;18.294;2023-03-13T01:33:06;100237.78;;;-5.67;56.90
76311;BME280;65120;59.304;18.294;2023-03-13T01:35:33;100243.69;;;-5.68;57.20
76311;BME280;65120;59.304;18.294;2023-03-13T01:37:59;100241.06;;;-5.70;57.39
76311;BME280;65120;59.304;18.294;2023-03-13T01:40:26;100242.69;;;-5.72;57.63
76311;BME280;65120;59.304;18.294;2023-03-13T01:42:55;100245.16;;;-5.73;57.69
76311;BME280;65120;59.304;18.294;2023-03-13T01:48:36;100228.00;;;-5.79;57.47
76311;BME280;65120;59.304;18.294;2023-03-13T01:51:08;100229.59;;;-5.81;57.17
76311;BME280;65120;59.304;18.294;2023-03-13T01:53:39;100223.63;;;-5.83;56.97
76311;BME280;65120;59.304;18.294;2023-03-13T01:56:12;100224.41;;;-5.84;57.18
76311;BME280;65120;59.304;18.294;2023-03-13T01:58:40;100220.06;;;-5.87;57.64
76311;BME280;65120;59.304;18.294;2023-03-13T02:01:08;100220.75;;;-5.91;57.91
76311;BME280;65120;59.304;18.294;2023-03-13T02:03:36;100226.72;;;-5.90;57.27
76311;BME280;65120;59.304;18.294;2023-03-13T02:06:05;100225.78;;;-5.92;57.02
76311;BME280;65120;59.304;18.294;2023-03-13T02:08:38;100214.66;;;-5.96;57.81
76311;BME280;65120;59.304;18.294;2023-03-13T02:11:15;100224.72;;;-5.99;57.90
76311;BME280;65120;59.304;18.294;2023-03-13T02:13:45;100216.16;;;-6.01;57.66
76311;BME280;65120;59.304;18.294;2023-03-13T02:16:13;100204.88;;;-6.07;57.38
76311;BME280;65120;59.304;18.294;2023-03-13T02:18:42;100211.69;;;-6.06;57.36
76311;BME280;65120;59.304;18.294;2023-03-13T02:21:13;100207.44;;;-6.07;57.50
76311;BME280;65120;59.304;18.294;2023-03-13T02:23:49;100203.16;;;-6.08;57.39
76311;BME280;65120;59.304;18.294;2023-03-13T02:26:20;100198.75;;;-6.13;57.91
76311;BME280;65120;59.304;18.294;2023-03-13T02:28:47;100205.59;;;-6.12;57.62
76311;BME280;65120;59.304;18.294;2023-03-13T02:31:15;100194.38;;;-6.17;57.54
76311;BME280;65120;59.304;18.294;2023-03-13T02:33:42;100193.50;;;-6.17;57.63
76311;BME280;65120;59.304;18.294;2023-03-13T02:36:10;100183.25;;;-6.19;57.92
76311;BME280;65120;59.304;18.294;2023-03-13T02:38:44;100180.59;;;-6.22;58.03
76311;BME280;65120;59.304;18.294;2023-03-13T02:41:13;100188.16;;;-6.23;57.72
76311;BME280;65120;59.304;18.294;2023-03-13T02:43:42;100190.66;;;-6.25;57.54
76311;BME280;65120;59.304;18.294;2023-03-13T02:46:11;100194.78;;;-6.27;57.71
76311;BME280;65120;59.304;18.294;2023-03-13T02:48:41;100198.16;;;-6.28;58.21
76311;BME280;65120;59.304;18.294;2023-03-13T02:51:13;100198.03;;;-6.31;57.87
76311;BME280;65120;59.304;18.294;2023-03-13T02:53:42;100184.06;;;-6.41;57.50
76311;BME280;65120;59.304;18.294;2023-03-13T02:56:11;100203.78;;;-6.35;57.55
76311;BME280;65120;59.304;18.294;2023-03-13T02:58:42;100207.06;;;-6.38;57.87
76311;BME280;65120;59.304;18.294;2023-03-13T03:01:09;100209.56;;;-6.39;57.46
76311;BME280;65120;59.304;18.294;2023-03-13T03:03:36;100201.81;;;-6.42;58.34
76311;BME280;65120;59.304;18.294;2023-03-13T03:06:04;100203.41;;;-6.44;58.39
76311;BME280;65120;59.304;18.294;2023-03-13T03:08:32;100193.25;;;-6.44;57.46
76311;BME280;65120;59.304;18.294;2023-03-13T03:10:59;100194.84;;;-6.46;57.99
76311;BME280;65120;59.304;18.294;2023-03-13T03:13:27;100192.19;;;-6.49;57.67
76311;BME280;65120;59.304;18.294;2023-03-13T03:15:55;100193.00;;;-6.50;57.86
76311;BME280;65120;59.304;18.294;2023-03-13T03:18:22;100196.41;;;-6.50;58.08
76311;BME280;65120;59.304;18.294;2023-03-13T03:20:48;100187.84;;;-6.52;57.76
76311;BME280;65120;59.304;18.294;2023-03-13T03:23:15;100182.72;;;-6.53;57.77
76311;BME280;65120;59.304;18.294;2023-03-13T03:25:42;100179.25;;;-6.56;57.59
76311;BME280;65120;59.304;18.294;2023-03-13T03:28:09;100179.13;;;-6.59;58.46
76311;BME280;65120;59.304;18.294;2023-03-13T03:30:36;100175.78;;;-6.58;57.85
76311;BME280;65120;59.304;18.294;2023-03-13T03:33:04;100180.00;;;-6.58;57.84
76311;BME280;65120;59.304;18.294;2023-03-13T03:35:31;100174.78;;;-6.61;58.48
76311;BME280;65120;59.304;18.294;2023-03-13T03:38:03;100175.66;;;-6.61;58.45
76311;BME280;65120;59.304;18.294;2023-03-13T03:40:29;100162.47;;;-6.73;58.22
76311;BME280;65120;59.304;18.294;2023-03-13T03:42:56;100164.13;;;-6.73;57.89
76311;BME280;65120;59.304;18.294;2023-03-13T03:45:23;100173.81;;;-6.65;58.02
76311;BME280;65120;59.304;18.294;2023-03-13T03:47:50;100171.19;;;-6.66;58.49
76311;BME280;65120;59.304;18.294;2023-03-13T03:50:18;100171.28;;;-6.65;58.13
76311;BME280;65120;59.304;18.294;2023-03-13T03:52:45;100160.00;;;-6.71;58.67
76311;BME280;65120;59.304;18.294;2023-03-13T03:55:12;100168.72;;;-6.65;58.08
76311;BME280;65120;59.304;18.294;2023-03-13T03:57:39;100135.63;;;-6.87;58.15
76311;BME280;65120;59.304;18.294;2023-03-13T04:00:07;100160.91;;;-6.69;57.98
76311;BME280;65120;59.304;18.294;2023-03-13T04:02:35;100176.28;;;-6.66;58.43
76311;BME280;65120;59.304;18.294;2023-03-13T04:05:02;100146.91;;;-6.81;58.96
76311;BME280;65120;59.304;18.294;2023-03-13T04:07:31;100141.91;;;-6.79;58.52
76311;BME280;65120;59.304;18.294;2023-03-13T04:09:58;100162.59;;;-6.70;58.51
76311;BME280;65120;59.304;18.294;2023-03-13T04:12:24;100159.09;;;-6.72;58.31
76311;BME280;65120;59.304;18.294;2023-03-13T04:14:51;100151.47;;;-6.72;58.48
76311;BME280;65120;59.304;18.294;2023-03-13T04:17:18;100144.69;;;-6.73;58.68
76311;BME280;65120;59.304;18.294;2023-03-13T04:19:45;100142.97;;;-6.74;58.70
76311;BME280;65120;59.304;18.294;2023-03-13T04:22:12;100118.81;;;-6.85;58.94
76311;BME280;65120;59.304;18.294;2023-03-13T04:24:40;100127.59;;;-6.77;58.89
76311;BME280;65120;59.304;18.294;2023-03-13T04:27:07;100094.03;;;-6.91;58.69
76311;BME280;65120;59.304;18.294;2023-03-13T04:29:34;100117.38;;;-6.79;58.98
76311;BME280;65120;59.304;18.294;2023-03-13T04:32:01;100098.59;;;-6.82;58.51
76311;BME280;65120;59.304;18.294;2023-03-13T04:34:28;100107.28;;;-6.77;58.31
76311;BME280;65120;59.304;18.294;2023-03-13T04:36:55;100083.13;;;-6.88;58.96
76311;BME280;65120;59.304;18.294;2023-03-13T04:39:22;100077.16;;;-6.89;58.87
76311;BME280;65120;59.304;18.294;2023-03-13T04:41:52;100092.84;;;-6.78;58.59
76311;BME280;65120;59.304;18.294;2023-03-13T04:44:19;100085.22;;;-6.78;58.93
76311;BME280;65120;59.304;18.294;2023-03-13T04:46:47;100065.34;;;-6.88;58.62
76311;BME280;65120;59.304;18.294;2023-03-13T04:49:14;100074.94;;;-6.81;58.48
76311;BME280;65120;59.304;18.294;2023-03-13T04:51:41;100055.19;;;-6.88;58.94
76311;BME280;65120;59.304;18.294;2023-03-13T04:54:09;100035.44;;;-6.95;58.76
76311;BME280;65120;59.304;18.294;2023-03-13T04:56:36;100068.25;;;-6.79;59.22
76311;BME280;65120;59.304;18.294;2023-03-13T04:59:04;100064.84;;;-6.80;59.49
76311;BME280;65120;59.304;18.294;2023-03-13T05:01:31;100062.13;;;-6.84;59.30
76311;BME280;65120;59.304;18.294;2023-03-13T05:03:58;100053.84;;;-6.80;58.72
76311;BME280;65120;59.304;18.294;2023-03-13T05:06:25;100059.69;;;-6.81;58.71
76311;BME280;65120;59.304;18.294;2023-03-13T05:08:51;100050.28;;;-6.84;59.58
76311;BME280;65120;59.304;18.294;2023-03-13T05:11:18;100037.22;;;-6.93;59.50
76311;BME280;65120;59.304;18.294;2023-03-13T05:13:45;100040.09;;;-6.85;59.19
76311;BME280;65120;59.304;18.294;2023-03-13T05:16:14;100037.59;;;-6.84;59.38
76311;BME280;65120;59.304;18.294;2023-03-13T05:18:41;100032.59;;;-6.82;59.13
76311;BME280;65120;59.304;18.294;2023-03-13T05:21:08;100005.91;;;-6.93;59.72
76311;BME280;65120;59.304;18.294;2023-03-13T05:23:34;100021.63;;;-6.81;59.55
76311;BME280;65120;59.304;18.294;2023-03-13T05:26:01;100005.41;;;-6.85;59.27
76311;BME280;65120;59.304;18.294;2023-03-13T05:28:29;100008.56;;;-6.90;59.20
76311;BME280;65120;59.304;18.294;2023-03-13T05:30:55;100030.16;;;-6.79;59.23
76311;BME280;65120;59.304;18.294;2023-03-13T05:33:24;100014.19;;;-6.76;59.36
76311;BME280;65120;59.304;18.294;2023-03-13T05:35:51;100011.69;;;-6.75;60.20
76311;BME280;65120;59.304;18.294;2023-03-13T05:38:18;100004.06;;;-6.75;59.61
76311;BME280;65120;59.304;18.294;2023-03-13T05:40:44;99989.34;;;-6.84;60.29
76311;BME280;65120;59.304;18.294;2023-03-13T05:43:11;100002.56;;;-6.70;60.15
76311;BME280;65120;59.304;18.294;2023-03-13T05:45:38;99997.59;;;-6.67;60.13
76311;BME280;65120;59.304;18.294;2023-03-13T05:48:06;99987.56;;;-6.64;60.43
76311;BME280;65120;59.304;18.294;2023-03-13T05:50:34;99974.13;;;-6.61;60.15
76311;BME280;65120;59.304;18.294;2023-03-13T05:53:01;99965.41;;;-6.68;60.72
76311;BME280;65120;59.304;18.294;2023-03-13T05:55:28;99966.38;;;-6.64;60.62
76311;BME280;65120;59.304;18.294;2023-03-13T05:57:54;99974.41;;;-6.53;61.05
76311;BME280;65120;59.304;18.294;2023-03-13T06:00:22;99967.72;;;-6.51;61.54
76311;BME280;65120;59.304;18.294;2023-03-13T06:02:49;99968.72;;;-6.46;61.84
76311;BME280;65120;59.304;18.294;2023-03-13T06:05:16;99963.81;;;-6.42;61.84
76311;BME280;65120;59.304;18.294;2023-03-13T06:07:44;99959.81;;;-6.35;61.89
76311;BME280;65120;59.304;18.294;2023-03-13T06:10:11;99972.16;;;-6.22;62.01
76311;BME280;65120;59.304;18.294;2023-03-13T06:12:39;99965.69;;;-6.14;62.13
76311;BME280;65120;59.304;18.294;2023-03-13T06:15:07;99958.34;;;-6.06;62.69
76311;BME280;65120;59.304;18.294;2023-03-13T06:17:35;99935.56;;;-6.03;62.93
76311;BME280;65120;59.304;18.294;2023-03-13T06:20:02;99948.75;;;-5.88;62.59
76311;BME280;65120;59.304;18.294;2023-03-13T06:22:30;99944.13;;;-5.74;62.78
76311;BME280;65120;59.304;18.294;2023-03-13T06:24:59;99923.78;;;-5.74;62.89
76311;BME280;65120;59.304;18.294;2023-03-13T06:27:27;99934.56;;;-5.55;63.06
76311;BME280;65120;59.304;18.294;2023-03-13T06:29:54;99924.53;;;-5.51;62.99
76311;BME280;65120;59.304;18.294;2023-03-13T06:32:20;99929.25;;;-5.36;62.96
76311;BME280;65120;59.304;18.294;2023-03-13T06:34:47;99914.84;;;-5.35;63.24
76311;BME280;65120;59.304;18.294;2023-03-13T06:37:14;99906.69;;;-5.25;63.72
76311;BME280;65120;59.304;18.294;2023-03-13T06:39:41;99913.97;;;-5.09;63.94
76311;BME280;65120;59.304;18.294;2023-03-13T06:42:10;99917.81;;;-4.94;63.70
76311;BME280;65120;59.304;18.294;2023-03-13T06:44:36;99912.91;;;-4.87;63.90
76311;BME280;65120;59.304;18.294;2023-03-13T06:47:04;99908.06;;;-4.79;64.51
76311;BME280;65120;59.304;18.294;2023-03-13T06:49:31;99910.09;;;-4.67;63.66
76311;BME280;65120;59.304;18.294;2023-03-13T06:51:57;99888.94;;;-4.65;64.12
76311;BME280;65120;59.304;18.294;2023-03-13T06:54:24;99893.66;;;-4.47;64.18
76311;BME280;65120;59.304;18.294;2023-03-13T06:56:52;99886.31;;;-4.38;63.96
76311;BME280;65120;59.304;18.294;2023-03-13T06:59:20;99878.13;;;-4.24;64.24
76311;BME280;65120;59.304;18.294;2023-03-13T07:01:47;99871.59;;;-4.15;64.39
76311;BME280;65120;59.304;18.294;2023-03-13T07:04:14;99860.03;;;-4.02;64.63
76311;BME280;65120;59.304;18.294;2023-03-13T07:06:41;99840.72;;;-3.92;64.12
76311;BME280;65120;59.304;18.294;2023-03-13T07:09:08;99830.75;;;-3.81;64.32
76311;BME280;65120;59.304;18.294;2023-03-13T07:11:36;99823.38;;;-3.71;64.06
76311;BME280;65120;59.304;18.294;2023-03-13T07:14:03;99815.09;;;-3.60;64.13
76311;BME280;65120;59.304;18.294;2023-03-13T07:16:31;99814.53;;;-3.49;64.48
76311;BME280;65120;59.304;18.294;2023-03-13T07:18:58;99823.41;;;-3.33;64.47
76311;BME280;65120;59.304;18.294;2023-03-13T07:21:25;99815.09;;;-3.23;64.73
76311;BME280;65120;59.304;18.294;2023-03-13T07:23:52;99804.25;;;-3.11;64.42
76311;BME280;65120;59.304;18.294;2023-03-13T07:26:18;99804.53;;;-2.99;64.45
76311;BME280;65120;59.304;18.294;2023-03-13T07:28:46;99798.81;;;-2.87;64.41
76311;BME280;65120;59.304;18.294;2023-03-13T07:31:14;99799.09;;;-2.73;64.51
76311;BME280;65120;59.304;18.294;2023-03-13T07:33:43;99752.00;;;-2.84;64.69
76311;BME280;65120;59.304;18.294;2023-03-13T07:36:12;99784.97;;;-2.53;64.54
76311;BME280;65120;59.304;18.294;2023-03-13T07:38:39;99777.53;;;-2.40;64.46
76311;BME280;65120;59.304;18.294;2023-03-13T07:41:10;99758.94;;;-2.30;64.20
76311;BME280;65120;59.304;18.294;2023-03-13T07:43:37;99766.81;;;-2.18;64.04
76311;BME280;65120;59.304;18.294;2023-03-13T07:46:06;99761.84;;;-2.09;64.19
76311;BME280;65120;59.304;18.294;2023-03-13T07:48:35;99764.63;;;-1.95;63.99
76311;BME280;65120;59.304;18.294;2023-03-13T07:51:05;99752.91;;;-1.82;64.30
76311;BME280;65120;59.304;18.294;2023-03-13T07:53:33;99752.19;;;-1.72;63.88
76311;BME280;65120;59.304;18.294;2023-03-13T07:56:01;99742.97;;;-1.61;63.79
76311;BME280;65120;59.304;18.294;2023-03-13T07:58:29;99732.00;;;-1.50;64.09
76311;BME280;65120;59.304;18.294;2023-03-13T08:00:56;99721.06;;;-1.39;63.83
76311;BME280;65120;59.304;18.294;2023-03-13T08:03:24;99702.38;;;-1.30;63.26
76311;BME280;65120;59.304;18.294;2023-03-13T08:05:58;99702.47;;;-1.21;63.60
76311;BME280;65120;59.304;18.294;2023-03-13T08:08:26;99687.25;;;-1.10;63.30
76311;BME280;65120;59.304;18.294;2023-03-13T08:10:58;99682.22;;;-1.01;62.81
76311;BME280;65120;59.304;18.294;2023-03-13T08:13:25;99680.63;;;-0.91;63.23
76311;BME280;65120;59.304;18.294;2023-03-13T08:15:59;99657.56;;;-0.86;63.34
76311;BME280;65120;59.304;18.294;2023-03-13T08:18:26;99672.22;;;-0.72;63.06
76311;BME280;65120;59.304;18.294;2023-03-13T08:20:53;99661.19;;;-0.64;62.79
76311;BME280;65120;59.304;18.294;2023-03-13T08:23:20;99657.81;;;-0.57;63.47
76311;BME280;65120;59.304;18.294;2023-03-13T08:25:48;99651.91;;;-0.49;63.52
76311;BME280;65120;59.304;18.294;2023-03-13T08:28:15;99660.53;;;-0.42;63.14
76311;BME280;65120;59.304;18.294;2023-03-13T08:30:42;99664.84;;;-0.35;63.25
76311;BME280;65120;59.304;18.294;2023-03-13T08:33:09;99645.22;;;-0.30;63.71
76311;BME280;65120;59.304;18.294;2023-03-13T08:35:35;99647.00;;;-0.22;63.50
76311;BME280;65120;59.304;18.294;2023-03-13T08:38:02;99641.91;;;-0.16;64.27
76311;BME280;65120;59.304;18.294;2023-03-13T08:40:31;99626.53;;;-0.12;65.14
76311;BME280;65120;59.304;18.294;2023-03-13T08:42:59;99615.44;;;-0.11;64.21
76311;BME280;65120;59.304;18.294;2023-03-13T08:45:26;99606.03;;;-0.07;65.27
76311;BME280;65120;59.304;18.294;2023-03-13T08:47:53;99626.59;;;0.02;65.48
76311;BME280;65120;59.304;18.294;2023-03-13T08:50:20;99608.66;;;0.05;64.73
76311;BME280;65120;59.304;18.294;2023-03-13T08:52:46;99604.41;;;0.10;65.31
76311;BME280;65120;59.304;18.294;2023-03-13T08:55:13;99602.72;;;0.15;65.73
76311;BME280;65120;59.304;18.294;2023-03-13T08:57:40;99591.59;;;0.16;66.23
76311;BME280;65120;59.304;18.294;2023-03-13T09:00:10;99589.06;;;0.21;66.38
76311;BME280;65120;59.304;18.294;2023-03-13T09:02:39;99583.06;;;0.25;66.66
76311;BME280;65120;59.304;18.294;2023-03-13T09:05:07;99571.94;;;0.28;67.38
76311;BME280;65120;59.304;18.294;2023-03-13T09:07:34;99567.69;;;0.33;67.31
76311;BME280;65120;59.304;18.294;2023-03-13T09:10:00;99548.00;;;0.33;67.19
76311;BME280;65120;59.304;18.294;2023-03-13T09:12:29;99541.16;;;0.38;67.32
76311;BME280;65120;59.304;18.294;2023-03-13T09:14:55;99538.59;;;0.41;67.74
76311;BME280;65120;59.304;18.294;2023-03-13T09:17:24;99528.34;;;0.43;67.94
76311;BME280;65120;59.304;18.294;2023-03-13T09:19:51;99512.06;;;0.47;67.93
76311;BME280;65120;59.304;18.294;2023-03-13T09:22:18;99507.81;;;0.49;68.65
76311;BME280;65120;59.304;18.294;2023-03-13T09:24:45;99481.25;;;0.49;68.97
76311;BME280;65120;59.304;18.294;2023-03-13T09:27:12;99494.94;;;0.57;68.47
76311;BME280;65120;59.304;18.294;2023-03-13T09:29:39;99489.84;;;0.60;69.15
76311;BME280;65120;59.304;18.294;2023-03-13T09:32:08;99475.28;;;0.60;69.25
76311;BME280;65120;59.304;18.294;2023-03-13T09:34:37;99461.56;;;0.64;70.14
76311;BME280;65120;59.304;18.294;2023-03-13T09:37:04;99453.88;;;0.66;70.05
76311;BME280;65120;59.304;18.294;2023-03-13T09:39:30;99453.00;;;0.70;70.03
76311;BME280;65120;59.304;18.294;2023-03-13T09:42:02;99438.44;;;0.72;69.30
76311;BME280;65120;59.304;18.294;2023-03-13T09:44:38;99435.00;;;0.76;69.95
76311;BME280;65120;59.304;18.294;2023-03-13T09:47:11;99432.44;;;0.78;70.46
76311;BME280;65120;59.304;18.294;2023-03-13T09:49:45;99416.16;;;0.80;70.40
76311;BME280;65120;59.304;18.294;2023-03-13T09:52:16;99408.44;;;0.83;70.50
76311;BME280;65120;59.304;18.294;2023-03-13T09:54:47;99402.44;;;0.87;71.00
76311;BME280;65120;59.304;18.294;2023-03-13T09:57:22;99396.41;;;0.93;70.46
76311;BME280;65120;59.304;18.294;2023-03-13T09:59:52;99384.41;;;0.97;70.69
76311;BME280;65120;59.304;18.294;2023-03-13T10:02:26;99376.72;;;1.00;70.39
76311;BME280;65120;59.304;18.294;2023-03-13T10:05:01;99360.41;;;1.02;70.44
76311;BME280;65120;59.304;18.294;2023-03-13T10:07:29;99358.69;;;1.04;71.33
76311;BME280;65120;59.304;18.294;2023-03-13T10:09:57;99348.38;;;1.07;70.70
76311;BME280;65120;59.304;18.294;2023-03-13T10:12:27;99345.81;;;1.09;71.63
76311;BME280;65120;59.304;18.294;2023-03-13T10:15:11;99342.41;;;1.11;71.12
76311;BME280;65120;59.304;18.294;2023-03-13T10:17:43;99332.09;;;1.13;71.40
76311;BME280;65120;59.304;18.294;2023-03-13T10:20:21;99331.22;;;1.16;71.47
76311;BME280;65120;59.304;18.294;2023-03-13T10:22:50;99326.06;;;1.19;71.80
76311;BME280;65120;59.304;18.294;2023-03-13T10:25:26;99317.50;;;1.20;71.10
76311;BME280;65120;59.304;18.294;2023-03-13T10:27:53;99314.06;;;1.24;71.15
76311;BME280;65120;59.304;18.294;2023-03-13T10:30:23;99309.75;;;1.24;71.42
76311;BME280;65120;59.304;18.294;2023-03-13T10:32:53;99291.75;;;1.26;71.96
76311;BME280;65120;59.304;18.294;2023-03-13T10:35:23;99298.59;;;1.27;71.72
76311;BME280;65120;59.304;18.294;2023-03-13T10:38:00;99283.16;;;1.27;71.33
76311;BME280;65120;59.304;18.294;2023-03-13T10:40:27;99275.44;;;1.30;71.43
76311;BME280;65120;59.304;18.294;2023-03-13T10:43:01;99266.88;;;1.31;71.09
76311;BME280;65120;59.304;18.294;2023-03-13T10:45:32;99254.84;;;1.31;71.55
76311;BME280;65120;59.304;18.294;2023-03-13T10:48:03;99247.13;;;1.33;72.24
76311;BME280;65120;59.304;18.294;2023-03-13T10:50:41;99237.66;;;1.33;71.67
76311;BME280;65120;59.304;18.294;2023-03-13T10:53:21;99234.22;;;1.36;71.76
76311;BME280;65120;59.304;18.294;2023-03-13T10:55:51;99225.66;;;1.37;71.07
76311;BME280;65120;59.304;18.294;2023-03-13T10:58:21;99212.81;;;1.37;71.33
76311;BME280;65120;59.304;18.294;2023-03-13T11:00:48;99209.34;;;1.38;71.36
76311;BME280;65120;59.304;18.294;2023-03-13T11:03:17;99203.38;;;1.38;71.84
76311;BME280;65120;59.304;18.294;2023-03-13T11:05:56;99183.63;;;1.40;72.15
76311;BME280;65120;59.304;18.294;2023-03-13T11:08:24;99169.03;;;1.40;71.34
76311;BME280;65120;59.304;18.294;2023-03-13T11:10:55;99163.03;;;1.41;71.30
76311;BME280;65120;59.304;18.294;2023-03-13T11:13:32;99147.59;;;1.41;71.60
76311;BME280;65120;59.304;18.294;2023-03-13T11:16:08;99140.72;;;1.43;71.54
76311;BME280;65120;59.304;18.294;2023-03-13T11:18:41;99138.16;;;1.43;72.07
76311;BME280;65120;59.304;18.294;2023-03-13T11:21:19;99110.69;;;1.42;71.99
76311;BME280;65120;59.304;18.294;2023-03-13T11:23:52;99102.13;;;1.43;72.20
76311;BME280;65120;59.304;18.294;2023-03-13T11:26:30;99102.97;;;1.44;72.62
76311;BME280;65120;59.304;18.294;2023-03-13T11:29:05;99082.38;;;1.42;72.61
76311;BME280;65120;59.304;18.294;2023-03-13T11:31:38;99102.97;;;1.45;72.61
76311;BME280;65120;59.304;18.294;2023-03-13T11:34:14;99096.09;;;1.46;72.60
76311;BME280;65120;59.304;18.294;2023-03-13T11:36:51;99084.09;;;1.46;72.48
76311;BME280;65120;59.304;18.294;2023-03-13T11:39:36;99078.91;;;1.49;72.75
76311;BME280;65120;59.304;18.294;2023-03-13T11:42:17;99075.50;;;1.49;72.32
76311;BME280;65120;59.304;18.294;2023-03-13T11:44:54;99065.16;;;1.50;72.45
76311;BME280;65120;59.304;18.294;2023-03-13T11:47:34;99043.72;;;1.50;72.56
76311;BME280;65120;59.304;18.294;2023-03-13T11:50:24;99042.84;;;1.54;72.58
76311;BME280;65120;59.304;18.294;2023-03-13T11:53:02;99030.84;;;1.54;72.97
76311;BME280;65120;59.304;18.294;2023-03-13T11:55:41;99009.41;;;1.52;72.68
76311;BME280;65120;59.304;18.294;2023-03-13T11:58:31;99002.53;;;1.54;73.06
76311;BME280;65120;59.304;18.294;2023-03-13T12:01:04;98994.81;;;1.54;73.05
76311;BME280;65120;59.304;18.294;2023-03-13T12:03:35;98981.94;;;1.54;73.42
76311;BME280;65120;59.304;18.294;2023-03-13T12:06:06;98981.09;;;1.54;73.87
76311;BME280;65120;59.304;18.294;2023-03-13T12:08:41;98966.50;;;1.53;73.33
76311;BME280;65120;59.304;18.294;2023-03-13T12:11:15;98958.78;;;1.54;72.70
76311;BME280;65120;59.304;18.294;2023-03-13T12:13:45;98946.75;;;1.55;72.78
76311;BME280;65120;59.304;18.294;2023-03-13T12:16:19;98942.47;;;1.55;73.23
76311;BME280;65120;59.304;18.294;2023-03-13T12:18:48;98933.00;;;1.56;73.54
76311;BME280;65120;59.304;18.294;2023-03-13T12:21:18;98926.13;;;1.56;73.09
76311;BME280;65120;59.304;18.294;2023-03-13T12:23:53;98908.13;;;1.58;72.76
76311;BME280;65120;59.304;18.294;2023-03-13T12:26:29;98903.81;;;1.58;72.89
76311;BME280;65120;59.304;18.294;2023-03-13T12:29:03;98894.38;;;1.59;73.25
76311;BME280;65120;59.304;18.294;2023-03-13T12:31:35;98889.22;;;1.61;73.26
76311;BME280;65120;59.304;18.294;2023-03-13T12:34:11;98870.38;;;1.60;73.09
76311;BME280;65120;59.304;18.294;2023-03-13T12:36:46;98859.22;;;1.60;73.70
76311;BME280;65120;59.304;18.294;2023-03-13T12:39:25;98848.94;;;1.60;72.81
76311;BME280;65120;59.304;18.294;2023-03-13T12:42:07;98840.31;;;1.61;72.81
76311;BME280;65120;59.304;18.294;2023-03-13T12:44:35;98840.31;;;1.61;73.74
76311;BME280;65120;59.304;18.294;2023-03-13T12:47:07;98821.44;;;1.62;73.30
76311;BME280;65120;59.304;18.294;2023-03-13T12:50:08;98808.56;;;1.63;72.79
76311;BME280;65120;59.304;18.294;2023-03-13T12:52:58;98800.84;;;1.63;73.27
76311;BME280;65120;59.304;18.294;2023-03-13T12:55:50;98780.25;;;1.63;73.77
76311;BME280;65120;59.304;18.294;2023-03-13T12:58:39;98787.09;;;1.64;73.23
76311;BME280;65120;59.304;18.294;2023-03-13T13:01:14;98768.22;;;1.64;73.73
76311;BME280;65120;59.304;18.294;2023-03-13T13:03:49;98746.75;;;1.65;73.20